sensor_id;sensor_type;location;lat;lon;timestamp;pressure;altitude;pressure_sealevel;temperature;humidity
22000;BME280;11164;48.818;2.322;2023-03-03T00:02:12;101147.63;;;6.39;36.62
22000;BME280;11164;48.818;2.322;2023-03-03T00:04:37;101148.28;;;6.33;36.70
22000;BME280;11164;48.818;2.322;2023-03-03T00:07:02;101146.78;;;6.21;36.84
22000;BME280;11164;48.818;2.322;2023-03-03T00:09:28;101145.06;;;6.11;36.94
22000;BME280;11164;48.818;2.322;2023-03-03T00:11:55;101155.09;;;6.09;36.75
22000;BME280;11164;48.818;2.322;2023-03-03T00:14:28;101151.50;;;6.01;37.24
22000;BME280;11164;48.818;2.322;2023-03-03T00:16:54;101140.50;;;6.04;36.99
22000;BME280;11164;48.818;2.322;2023-03-03T00:19:20;101153.22;;;6.02;36.84
22000;BME280;11164;48.818;2.322;2023-03-03T00:21:50;101149.22;;;6.06;36.84
22000;BME280;11164;48.818;2.322;2023-03-03T00:24:24;101150.19;;;6.05;37.74
22000;BME280;11164;48.818;2.322;2023-03-03T00:26:56;101155.56;;;6.05;37.13
22000;BME280;11164;48.818;2.322;2023-03-03T00:29:36;101155.88;;;6.02;37.34
22000;BME280;11164;48.818;2.322;2023-03-03T00:34:39;101155.31;;;5.98;36.75
22000;BME280;11164;48.818;2.322;2023-03-03T00:39:44;101153.13;;;5.93;36.89
22000;BME280;11164;48.818;2.322;2023-03-03T00:42:12;101152.50;;;5.99;36.87
22000;BME280;11164;48.818;2.322;2023-03-03T00:47:25;101157.84;;;5.99;37.69
22000;BME280;11164;48.818;2.322;2023-03-03T00:49:51;101152.03;;;6.04;36.60
22000;BME280;11164;48.818;2.322;2023-03-03T00:52:18;101152.34;;;6.01;36.99
22000;BME280;11164;48.818;2.322;2023-03-03T00:54:44;101148.41;;;6.13;36.64
22000;BME280;11164;48.818;2.322;2023-03-03T00:57:10;101153.16;;;6.20;36.75
22000;BME280;11164;48.818;2.322;2023-03-03T00:59:39;101143.41;;;6.10;36.86
22000;BME280;11164;48.818;2.322;2023-03-03T01:02:05;101157.13;;;6.15;36.62
22000;BME280;11164;48.818;2.322;2023-03-03T01:04:30;101155.41;;;6.06;37.24
22000;BME280;11164;48.818;2.322;2023-03-03T01:06:56;101160.84;;;5.96;37.18
22000;BME280;11164;48.818;2.322;2023-03-03T01:09:22;101138.53;;;5.88;37.35
22000;BME280;11164;48.818;2.322;2023-03-03T01:11:48;101159.84;;;5.97;37.22
22000;BME280;11164;48.818;2.322;2023-03-03T01:14:14;101157.03;;;5.99;37.10
22000;BME280;11164;48.818;2.322;2023-03-03T01:16:40;101147.69;;;5.85;37.47
22000;BME280;11164;48.818;2.322;2023-03-03T01:19:06;101162.81;;;5.94;37.37
22000;BME280;11164;48.818;2.322;2023-03-03T01:21:31;101157.47;;;5.94;37.18
22000;BME280;11164;48.818;2.322;2023-03-03T01:23:57;101154.94;;;5.93;37.26
22000;BME280;11164;48.818;2.322;2023-03-03T01:26:22;101154.66;;;5.78;37.32
22000;BME280;11164;48.818;2.322;2023-03-03T01:28:48;101165.91;;;5.82;37.22
22000;BME280;11164;48.818;2.322;2023-03-03T01:31:13;101160.69;;;5.80;37.36
22000;BME280;11164;48.818;2.322;2023-03-03T01:33:39;101165.38;;;5.78;37.38
22000;BME280;11164;48.818;2.322;2023-03-03T01:36:04;101152.53;;;5.82;37.04
22000;BME280;11164;48.818;2.322;2023-03-03T01:38:30;101163.06;;;5.65;37.70
22000;BME280;11164;48.818;2.322;2023-03-03T01:40:56;101166.56;;;5.48;37.76
22000;BME280;11164;48.818;2.322;2023-03-03T01:43:25;101164.34;;;5.43;38.20
22000;BME280;11164;48.818;2.322;2023-03-03T01:48:24;101137.84;;;5.68;37.71
22000;BME280;11164;48.818;2.322;2023-03-03T01:51:05;101155.97;;;5.74;37.48
22000;BME280;11164;48.818;2.322;2023-03-03T01:53:41;101157.25;;;5.70;38.05
22000;BME280;11164;48.818;2.322;2023-03-03T01:56:07;101152.44;;;5.73;37.83
22000;BME280;11164;48.818;2.322;2023-03-03T01:58:41;101134.78;;;5.63;37.82
22000;BME280;11164;48.818;2.322;2023-03-03T02:01:11;101142.44;;;5.57;37.51
22000;BME280;11164;48.818;2.322;2023-03-03T02:03:38;101144.09;;;5.40;37.81
22000;BME280;11164;48.818;2.322;2023-03-03T02:06:09;101141.53;;;5.21;39.32
22000;BME280;11164;48.818;2.322;2023-03-03T02:08:50;101145.66;;;5.15;38.74
22000;BME280;11164;48.818;2.322;2023-03-03T02:11:18;101148.59;;;5.22;38.23
22000;BME280;11164;48.818;2.322;2023-03-03T02:13:45;101151.56;;;5.19;38.45
22000;BME280;11164;48.818;2.322;2023-03-03T02:16:10;101149.03;;;5.17;38.47
22000;BME280;11164;48.818;2.322;2023-03-03T02:18:36;101145.97;;;5.12;38.45
22000;BME280;11164;48.818;2.322;2023-03-03T02:21:15;101131.31;;;4.89;41.00
22000;BME280;11164;48.818;2.322;2023-03-03T02:26:24;101138.06;;;4.93;39.66
22000;BME280;11164;48.818;2.322;2023-03-03T02:28:50;101137.53;;;5.07;38.55
22000;BME280;11164;48.818;2.322;2023-03-03T02:31:19;101147.69;;;5.03;38.79
22000;BME280;11164;48.818;2.322;2023-03-03T02:33:47;101131.81;;;5.02;38.69
22000;BME280;11164;48.818;2.322;2023-03-03T02:36:14;101125.13;;;4.88;38.74
22000;BME280;11164;48.818;2.322;2023-03-03T02:38:46;101125.22;;;4.96;38.92
22000;BME280;11164;48.818;2.322;2023-03-03T02:44:16;101131.28;;;5.16;40.98
22000;BME280;11164;48.818;2.322;2023-03-03T02:46:47;101141.59;;;5.11;38.71
22000;BME280;11164;48.818;2.322;2023-03-03T02:49:15;101133.91;;;5.08;38.50
22000;BME280;11164;48.818;2.322;2023-03-03T02:51:41;101139.72;;;4.94;38.53
22000;BME280;11164;48.818;2.322;2023-03-03T02:54:09;101115.72;;;4.84;38.95
22000;BME280;11164;48.818;2.322;2023-03-03T02:56:35;101143.88;;;5.06;39.05
22000;BME280;11164;48.818;2.322;2023-03-03T02:59:02;101147.44;;;4.97;38.72
22000;BME280;11164;48.818;2.322;2023-03-03T03:01:27;101147.22;;;4.53;39.71
22000;BME280;11164;48.818;2.322;2023-03-03T03:03:55;101144.72;;;4.79;39.39
22000;BME280;11164;48.818;2.322;2023-03-03T03:06:22;101141.81;;;5.00;38.66
22000;BME280;11164;48.818;2.322;2023-03-03T03:08:47;101141.31;;;5.14;38.83
22000;BME280;11164;48.818;2.322;2023-03-03T03:11:13;101137.16;;;5.02;38.56
22000;BME280;11164;48.818;2.322;2023-03-03T03:13:38;101138.84;;;5.03;38.83
22000;BME280;11164;48.818;2.322;2023-03-03T03:16:04;101136.50;;;4.90;39.16
22000;BME280;11164;48.818;2.322;2023-03-03T03:18:29;101134.47;;;4.74;39.51
22000;BME280;11164;48.818;2.322;2023-03-03T03:20:55;101137.69;;;4.78;39.74
22000;BME280;11164;48.818;2.322;2023-03-03T03:23:20;101131.78;;;4.74;39.76
22000;BME280;11164;48.818;2.322;2023-03-03T03:25:48;101128.19;;;4.93;39.27
22000;BME280;11164;48.818;2.322;2023-03-03T03:28:16;101140.03;;;4.53;39.68
22000;BME280;11164;48.818;2.322;2023-03-03T03:30:41;101138.59;;;4.59;39.95
22000;BME280;11164;48.818;2.322;2023-03-03T03:33:08;101136.56;;;4.80;39.53
22000;BME280;11164;48.818;2.322;2023-03-03T03:35:35;101143.84;;;4.88;38.81
22000;BME280;11164;48.818;2.322;2023-03-03T03:38:01;101137.34;;;4.63;39.20
22000;BME280;11164;48.818;2.322;2023-03-03T03:40:27;101136.78;;;4.59;40.51
22000;BME280;11164;48.818;2.322;2023-03-03T03:42:53;101140.34;;;4.78;39.32
22000;BME280;11164;48.818;2.322;2023-03-03T03:45:18;101141.13;;;4.98;38.85
22000;BME280;11164;48.818;2.322;2023-03-03T03:47:44;101139.63;;;5.13;38.84
22000;BME280;11164;48.818;2.322;2023-03-03T03:50:10;101135.50;;;5.01;39.02
22000;BME280;11164;48.818;2.322;2023-03-03T03:52:35;101151.50;;;4.73;39.18
22000;BME280;11164;48.818;2.322;2023-03-03T03:55:01;101148.88;;;4.54;39.88
22000;BME280;11164;48.818;2.322;2023-03-03T03:57:26;101153.78;;;4.58;39.66
22000;BME280;11164;48.818;2.322;2023-03-03T03:59:52;101155.72;;;4.66;40.04
22000;BME280;11164;48.818;2.322;2023-03-03T04:02:18;101156.88;;;4.54;40.27
22000;BME280;11164;48.818;2.322;2023-03-03T04:04:44;101161.38;;;4.63;40.00
22000;BME280;11164;48.818;2.322;2023-03-03T04:07:09;101155.34;;;4.89;39.92
22000;BME280;11164;48.818;2.322;2023-03-03T04:09:34;101157.53;;;4.75;39.67
22000;BME280;11164;48.818;2.322;2023-03-03T04:12:00;101165.16;;;4.70;40.21
22000;BME280;11164;48.818;2.322;2023-03-03T04:14:25;101163.78;;;4.56;40.44
22000;BME280;11164;48.818;2.322;2023-03-03T04:16:51;101159.28;;;4.57;40.85
22000;BME280;11164;48.818;2.322;2023-03-03T04:19:16;101151.13;;;4.48;40.23
22000;BME280;11164;48.818;2.322;2023-03-03T04:21:41;101137.66;;;4.40;40.86
22000;BME280;11164;48.818;2.322;2023-03-03T04:24:07;101155.56;;;4.67;39.71
22000;BME280;11164;48.818;2.322;2023-03-03T04:26:32;101157.88;;;4.53;41.00
22000;BME280;11164;48.818;2.322;2023-03-03T04:28:58;101172.50;;;4.58;40.40
22000;BME280;11164;48.818;2.322;2023-03-03T04:31:24;101164.34;;;4.50;40.63
22000;BME280;11164;48.818;2.322;2023-03-03T04:33:50;101174.06;;;4.51;40.81
22000;BME280;11164;48.818;2.322;2023-03-03T04:36:16;101175.84;;;4.60;40.43
22000;BME280;11164;48.818;2.322;2023-03-03T04:38:42;101174.19;;;4.59;40.39
22000;BME280;11164;48.818;2.322;2023-03-03T04:41:07;101154.78;;;4.38;40.66
22000;BME280;11164;48.818;2.322;2023-03-03T04:43:33;101174.78;;;4.34;41.60
22000;BME280;11164;48.818;2.322;2023-03-03T04:45:58;101186.84;;;4.47;40.59
22000;BME280;11164;48.818;2.322;2023-03-03T04:48:23;101175.31;;;4.47;40.04
22000;BME280;11164;48.818;2.322;2023-03-03T04:50:49;101158.84;;;4.42;40.95
22000;BME280;11164;48.818;2.322;2023-03-03T04:53:14;101178.69;;;4.39;41.05
22000;BME280;11164;48.818;2.322;2023-03-03T04:55:39;101183.06;;;4.40;40.67
22000;BME280;11164;48.818;2.322;2023-03-03T04:58:05;101177.59;;;4.22;41.33
22000;BME280;11164;48.818;2.322;2023-03-03T05:00:31;101186.97;;;4.36;41.52
22000;BME280;11164;48.818;2.322;2023-03-03T05:02:57;101181.25;;;4.51;40.48
22000;BME280;11164;48.818;2.322;2023-03-03T05:05:22;101179.25;;;4.33;40.75
22000;BME280;11164;48.818;2.322;2023-03-03T05:07:48;101176.19;;;4.08;41.11
22000;BME280;11164;48.818;2.322;2023-03-03T05:10:13;101172.81;;;4.06;41.77
22000;BME280;11164;48.818;2.322;2023-03-03T05:12:39;101166.91;;;4.22;41.39
22000;BME280;11164;48.818;2.322;2023-03-03T05:15:05;101167.78;;;4.13;41.62
22000;BME280;11164;48.818;2.322;2023-03-03T05:17:30;101176.19;;;4.08;41.26
22000;BME280;11164;48.818;2.322;2023-03-03T05:19:56;101173.41;;;4.00;41.78
22000;BME280;11164;48.818;2.322;2023-03-03T05:22:22;101186.59;;;4.02;41.92
22000;BME280;11164;48.818;2.322;2023-03-03T05:24:48;101162.28;;;4.15;41.34
22000;BME280;11164;48.818;2.322;2023-03-03T05:27:14;101174.06;;;4.22;41.10
22000;BME280;11164;48.818;2.322;2023-03-03T05:29:40;101167.88;;;4.31;40.40
22000;BME280;11164;48.818;2.322;2023-03-03T05:32:05;101172.38;;;4.30;41.10
22000;BME280;11164;48.818;2.322;2023-03-03T05:34:31;101171.69;;;4.19;41.36
22000;BME280;11164;48.818;2.322;2023-03-03T05:36:56;101181.78;;;4.35;41.39
22000;BME280;11164;48.818;2.322;2023-03-03T05:39:21;101179.00;;;4.46;41.58
22000;BME280;11164;48.818;2.322;2023-03-03T05:41:47;101181.81;;;4.44;41.03
22000;BME280;11164;48.818;2.322;2023-03-03T05:44:13;101166.63;;;4.25;41.20
22000;BME280;11164;48.818;2.322;2023-03-03T05:46:38;101172.38;;;4.40;41.33
22000;BME280;11164;48.818;2.322;2023-03-03T05:49:04;101177.84;;;4.29;41.40
22000;BME280;11164;48.818;2.322;2023-03-03T05:51:29;101181.13;;;4.23;41.64
22000;BME280;11164;48.818;2.322;2023-03-03T05:53:54;101171.13;;;4.25;41.25
22000;BME280;11164;48.818;2.322;2023-03-03T05:56:20;101185.88;;;4.39;41.25
22000;BME280;11164;48.818;2.322;2023-03-03T05:58:45;101180.28;;;4.13;41.32
22000;BME280;11164;48.818;2.322;2023-03-03T06:01:11;101179.41;;;4.12;41.57
22000;BME280;11164;48.818;2.322;2023-03-03T06:03:36;101196.00;;;4.06;41.75
22000;BME280;11164;48.818;2.322;2023-03-03T06:06:02;101190.22;;;4.20;41.12
22000;BME280;11164;48.818;2.322;2023-03-03T06:08:27;101185.31;;;4.25;41.83
22000;BME280;11164;48.818;2.322;2023-03-03T06:10:53;101183.63;;;4.05;42.06
22000;BME280;11164;48.818;2.322;2023-03-03T06:13:19;101194.47;;;3.94;42.24
22000;BME280;11164;48.818;2.322;2023-03-03T06:15:44;101190.94;;;3.93;42.00
22000;BME280;11164;48.818;2.322;2023-03-03T06:18:10;101193.06;;;3.99;41.34
22000;BME280;11164;48.818;2.322;2023-03-03T06:20:35;101198.09;;;4.12;40.98
22000;BME280;11164;48.818;2.322;2023-03-03T06:23:02;101191.38;;;3.98;42.18
22000;BME280;11164;48.818;2.322;2023-03-03T06:25:28;101195.72;;;3.99;41.60
22000;BME280;11164;48.818;2.322;2023-03-03T06:27:53;101191.38;;;4.08;42.46
22000;BME280;11164;48.818;2.322;2023-03-03T06:30:19;101197.56;;;3.99;41.50
22000;BME280;11164;48.818;2.322;2023-03-03T06:32:45;101210.78;;;4.00;41.68
22000;BME280;11164;48.818;2.322;2023-03-03T06:35:11;101220.16;;;3.75;42.63
22000;BME280;11164;48.818;2.322;2023-03-03T06:37:36;101215.50;;;3.77;42.73
22000;BME280;11164;48.818;2.322;2023-03-03T06:40:03;101225.63;;;3.93;42.87
22000;BME280;11164;48.818;2.322;2023-03-03T06:42:29;101230.69;;;3.96;42.57
22000;BME280;11164;48.818;2.322;2023-03-03T06:44:55;101237.44;;;3.90;42.28
22000;BME280;11164;48.818;2.322;2023-03-03T06:47:20;101246.22;;;3.52;43.48
22000;BME280;11164;48.818;2.322;2023-03-03T06:49:45;101251.69;;;3.50;44.10
22000;BME280;11164;48.818;2.322;2023-03-03T06:52:14;101254.28;;;3.31;44.06
22000;BME280;11164;48.818;2.322;2023-03-03T06:54:41;101250.13;;;3.48;43.45
22000;BME280;11164;48.818;2.322;2023-03-03T06:57:16;101256.09;;;3.71;44.42
22000;BME280;11164;48.818;2.322;2023-03-03T06:59:42;101250.78;;;3.90;42.50
22000;BME280;11164;48.818;2.322;2023-03-03T07:02:16;101250.16;;;3.58;43.96
22000;BME280;11164;48.818;2.322;2023-03-03T07:04:42;101258.47;;;3.84;42.38
22000;BME280;11164;48.818;2.322;2023-03-03T07:07:25;101265.50;;;3.95;44.43
22000;BME280;11164;48.818;2.322;2023-03-03T07:09:53;101266.22;;;4.06;42.67
22000;BME280;11164;48.818;2.322;2023-03-03T07:12:22;101269.47;;;4.10;42.45
22000;BME280;11164;48.818;2.322;2023-03-03T07:14:51;101272.97;;;4.10;42.21
22000;BME280;11164;48.818;2.322;2023-03-03T07:17:22;101260.16;;;3.95;42.59
22000;BME280;11164;48.818;2.322;2023-03-03T07:19:48;101286.19;;;4.22;42.49
22000;BME280;11164;48.818;2.322;2023-03-03T07:22:26;101289.53;;;4.14;43.04
22000;BME280;11164;48.818;2.322;2023-03-03T07:24:56;101282.69;;;4.41;42.04
22000;BME280;11164;48.818;2.322;2023-03-03T07:27:29;101284.66;;;4.48;42.55
22000;BME280;11164;48.818;2.322;2023-03-03T07:30:26;101286.91;;;4.43;43.57
22000;BME280;11164;48.818;2.322;2023-03-03T07:32:57;101258.38;;;4.34;43.45
22000;BME280;11164;48.818;2.322;2023-03-03T07:37:51;101284.66;;;4.58;42.43
22000;BME280;11164;48.818;2.322;2023-03-03T07:42:51;101292.81;;;4.57;42.70
22000;BME280;11164;48.818;2.322;2023-03-03T07:45:36;101298.00;;;4.39;44.10
22000;BME280;11164;48.818;2.322;2023-03-03T07:48:24;101301.25;;;4.52;43.68
22000;BME280;11164;48.818;2.322;2023-03-03T07:50:51;101297.03;;;4.50;42.91
22000;BME280;11164;48.818;2.322;2023-03-03T07:55:47;101312.06;;;4.70;42.47
22000;BME280;11164;48.818;2.322;2023-03-03T07:58:20;101308.84;;;4.47;43.21
22000;BME280;11164;48.818;2.322;2023-03-03T08:03:50;101313.06;;;4.59;42.79
22000;BME280;11164;48.818;2.322;2023-03-03T08:10:07;101318.81;;;4.84;44.32
22000;BME280;11164;48.818;2.322;2023-03-03T08:14:33;101326.69;;;4.46;43.53
22000;BME280;11164;48.818;2.322;2023-03-03T08:16:59;101313.88;;;4.30;43.48
22000;BME280;11164;48.818;2.322;2023-03-03T08:19:25;101330.91;;;4.59;43.44
22000;BME280;11164;48.818;2.322;2023-03-03T08:21:51;101334.13;;;4.43;43.49
22000;BME280;11164;48.818;2.322;2023-03-03T08:24:17;101326.16;;;4.53;43.32
22000;BME280;11164;48.818;2.322;2023-03-03T08:26:42;101327.97;;;4.72;42.64
22000;BME280;11164;48.818;2.322;2023-03-03T08:29:09;101333.97;;;4.83;42.40
22000;BME280;11164;48.818;2.322;2023-03-03T08:31:36;101337.66;;;4.82;42.49
22000;BME280;11164;48.818;2.322;2023-03-03T08:34:01;101312.63;;;4.64;42.94
22000;BME280;11164;48.818;2.322;2023-03-03T08:36:27;101333.56;;;4.78;43.07
22000;BME280;11164;48.818;2.322;2023-03-03T08:38:52;101343.50;;;5.05;42.85
22000;BME280;11164;48.818;2.322;2023-03-03T08:41:18;101338.72;;;5.09;42.48
22000;BME280;11164;48.818;2.322;2023-03-03T08:43:43;101338.28;;;5.04;42.73
22000;BME280;11164;48.818;2.322;2023-03-03T08:46:09;101342.13;;;5.49;42.23
22000;BME280;11164;48.818;2.322;2023-03-03T08:48:36;101328.63;;;5.40;42.28
22000;BME280;11164;48.818;2.322;2023-03-03T08:51:01;101346.09;;;5.45;42.31
22000;BME280;11164;48.818;2.322;2023-03-03T08:53:27;101325.75;;;5.24;42.48
22000;BME280;11164;48.818;2.322;2023-03-03T08:55:53;101350.00;;;5.03;42.81
22000;BME280;11164;48.818;2.322;2023-03-03T08:58:19;101345.47;;;5.13;43.32
22000;BME280;11164;48.818;2.322;2023-03-03T09:00:45;101354.81;;;4.70;43.90
22000;BME280;11164;48.818;2.322;2023-03-03T09:03:11;101359.41;;;4.97;43.66
22000;BME280;11164;48.818;2.322;2023-03-03T09:05:37;101336.34;;;4.96;43.29
22000;BME280;11164;48.818;2.322;2023-03-03T09:08:04;101355.44;;;5.11;42.75
22000;BME280;11164;48.818;2.322;2023-03-03T09:10:29;101360.22;;;5.17;43.38
22000;BME280;11164;48.818;2.322;2023-03-03T09:13:03;101346.38;;;5.32;43.37
22000;BME280;11164;48.818;2.322;2023-03-03T09:15:33;101354.66;;;5.48;42.62
22000;BME280;11164;48.818;2.322;2023-03-03T09:18:08;101341.72;;;5.71;42.59
22000;BME280;11164;48.818;2.322;2023-03-03T09:20:48;101358.84;;;5.88;42.74
22000;BME280;11164;48.818;2.322;2023-03-03T09:25:48;101360.34;;;5.91;43.15
22000;BME280;11164;48.818;2.322;2023-03-03T09:28:28;101361.41;;;5.80;43.05
22000;BME280;11164;48.818;2.322;2023-03-03T09:30:57;101359.34;;;6.20;42.16
22000;BME280;11164;48.818;2.322;2023-03-03T09:33:26;101360.41;;;6.54;41.51
22000;BME280;11164;48.818;2.322;2023-03-03T09:36:02;101366.69;;;6.45;41.69
22000;BME280;11164;48.818;2.322;2023-03-03T09:38:34;101363.78;;;6.39;41.73
22000;BME280;11164;48.818;2.322;2023-03-03T09:43:55;101371.91;;;6.19;41.70
22000;BME280;11164;48.818;2.322;2023-03-03T09:46:42;101364.44;;;5.95;41.95
22000;BME280;11164;48.818;2.322;2023-03-03T09:49:35;101378.34;;;6.26;41.82
22000;BME280;11164;48.818;2.322;2023-03-03T09:58:02;101374.09;;;6.51;41.20
22000;BME280;11164;48.818;2.322;2023-03-03T10:14:46;101396.66;;;7.03;40.70
22000;BME280;11164;48.818;2.322;2023-03-03T10:20:41;101397.53;;;6.49;41.17
22000;BME280;11164;48.818;2.322;2023-03-03T10:26:15;101403.91;;;6.66;40.61
22000;BME280;11164;48.818;2.322;2023-03-03T10:29:01;101409.22;;;6.48;41.17
22000;BME280;11164;48.818;2.322;2023-03-03T10:31:52;101410.00;;;6.59;41.10
22000;BME280;11164;48.818;2.322;2023-03-03T10:44:43;101413.88;;;7.71;39.52
22000;BME280;11164;48.818;2.322;2023-03-03T10:52:18;101404.38;;;8.27;38.91
22000;BME280;11164;48.818;2.322;2023-03-03T10:55:15;101411.94;;;8.23;38.35
22000;BME280;11164;48.818;2.322;2023-03-03T11:06:14;101387.56;;;8.17;38.36
22000;BME280;11164;48.818;2.322;2023-03-03T11:08:54;101403.53;;;8.18;39.05
22000;BME280;11164;48.818;2.322;2023-03-03T11:14:32;101399.44;;;7.72;39.27
22000;BME280;11164;48.818;2.322;2023-03-03T11:17:22;101394.16;;;8.31;38.89
22000;BME280;11164;48.818;2.322;2023-03-03T11:20:19;101404.63;;;8.50;37.78
22000;BME280;11164;48.818;2.322;2023-03-03T11:25:47;101395.91;;;8.65;38.44
22000;BME280;11164;48.818;2.322;2023-03-03T11:33:37;101393.03;;;8.58;38.36
22000;BME280;11164;48.818;2.322;2023-03-03T11:36:17;101391.19;;;8.58;38.24
22000;BME280;11164;48.818;2.322;2023-03-03T11:41:31;101382.81;;;8.70;38.38
22000;BME280;11164;48.818;2.322;2023-03-03T11:44:21;101377.94;;;8.49;37.50
22000;BME280;11164;48.818;2.322;2023-03-03T11:46:59;101374.59;;;8.96;37.83
22000;BME280;11164;48.818;2.322;2023-03-03T11:49:36;101380.78;;;9.21;36.70
22000;BME280;11164;48.818;2.322;2023-03-03T11:52:39;101372.22;;;9.34;36.46
22000;BME280;11164;48.818;2.322;2023-03-03T11:55:14;101372.28;;;9.73;36.77
22000;BME280;11164;48.818;2.322;2023-03-03T12:05:49;101357.69;;;9.51;37.51
22000;BME280;11164;48.818;2.322;2023-03-03T12:11:26;101353.88;;;9.85;36.82
22000;BME280;11164;48.818;2.322;2023-03-03T12:13:57;101348.97;;;9.49;36.31
22000;BME280;11164;48.818;2.322;2023-03-03T12:27:41;101346.00;;;9.75;37.01
22000;BME280;11164;48.818;2.322;2023-03-03T12:30:19;101335.69;;;9.40;37.28
22000;BME280;11164;48.818;2.322;2023-03-03T12:33:09;101341.22;;;9.46;35.50
22000;BME280;11164;48.818;2.322;2023-03-03T12:38:48;101340.66;;;9.67;35.01
22000;BME280;11164;48.818;2.322;2023-03-03T12:41:39;101334.28;;;9.60;36.02
22000;BME280;11164;48.818;2.322;2023-03-03T12:47:21;101334.78;;;9.95;34.55
22000;BME280;11164;48.818;2.322;2023-03-03T12:57:47;101324.16;;;9.62;36.54
22000;BME280;11164;48.818;2.322;2023-03-03T13:03:08;101323.06;;;9.88;33.30
22000;BME280;11164;48.818;2.322;2023-03-03T13:08:46;101317.66;;;9.88;33.61
22000;BME280;11164;48.818;2.322;2023-03-03T13:11:52;101315.81;;;9.88;34.17
22000;BME280;11164;48.818;2.322;2023-03-03T13:16:46;101327.31;;;12.60;30.88
22000;BME280;11164;48.818;2.322;2023-03-03T13:19:26;101308.91;;;14.30;28.52
22000;BME280;11164;48.818;2.322;2023-03-03T13:21:58;101312.72;;;15.03;28.48
22000;BME280;11164;48.818;2.322;2023-03-03T13:27:18;101292.00;;;15.15;28.79
22000;BME280;11164;48.818;2.322;2023-03-03T13:30:03;101305.81;;;15.13;27.84
22000;BME280;11164;48.818;2.322;2023-03-03T13:32:43;101313.78;;;13.93;29.64
22000;BME280;11164;48.818;2.322;2023-03-03T13:38:04;101308.84;;;12.06;34.51
22000;BME280;11164;48.818;2.322;2023-03-03T13:40:40;101309.56;;;11.63;31.64
22000;BME280;11164;48.818;2.322;2023-03-03T13:43:21;101307.06;;;11.61;32.64
22000;BME280;11164;48.818;2.322;2023-03-03T13:46:02;101309.84;;;11.83;35.09
22000;BME280;11164;48.818;2.322;2023-03-03T13:51:49;101305.72;;;12.24;32.77
22000;BME280;11164;48.818;2.322;2023-03-03T13:57:51;101300.25;;;11.95;30.83
22000;BME280;11164;48.818;2.322;2023-03-03T14:05:52;101299.25;;;13.59;31.24
22000;BME280;11164;48.818;2.322;2023-03-03T14:11:24;101305.91;;;13.57;31.55
22000;BME280;11164;48.818;2.322;2023-03-03T14:20:20;101294.63;;;14.01;28.99
22000;BME280;11164;48.818;2.322;2023-03-03T14:22:54;101292.00;;;13.66;30.37
22000;BME280;11164;48.818;2.322;2023-03-03T14:25:21;101304.13;;;13.01;32.20
22000;BME280;11164;48.818;2.322;2023-03-03T14:33:18;101290.50;;;13.57;29.00
22000;BME280;11164;48.818;2.322;2023-03-03T14:38:37;101285.72;;;14.28;28.11
22000;BME280;11164;48.818;2.322;2023-03-03T14:41:21;101283.22;;;14.19;25.84
22000;BME280;11164;48.818;2.322;2023-03-03T14:49:14;101279.41;;;14.07;28.70
22000;BME280;11164;48.818;2.322;2023-03-03T14:51:52;101285.72;;;14.34;31.30
22000;BME280;11164;48.818;2.322;2023-03-03T14:54:27;101282.81;;;14.69;29.42
22000;BME280;11164;48.818;2.322;2023-03-03T14:57:00;101281.16;;;15.02;28.77
22000;BME280;11164;48.818;2.322;2023-03-03T14:59:27;101277.19;;;14.77;30.62
22000;BME280;11164;48.818;2.322;2023-03-03T15:04:44;101278.03;;;14.98;30.20
22000;BME280;11164;48.818;2.322;2023-03-03T15:09:48;101275.25;;;15.31;29.38
22000;BME280;11164;48.818;2.322;2023-03-03T15:15:21;101287.94;;;16.60;24.90
22000;BME280;11164;48.818;2.322;2023-03-03T15:20:44;101281.69;;;16.84;27.46
22000;BME280;11164;48.818;2.322;2023-03-03T15:26:09;101275.38;;;17.28;26.23
22000;BME280;11164;48.818;2.322;2023-03-03T15:39:20;101275.94;;;17.55;21.75
22000;BME280;11164;48.818;2.322;2023-03-03T15:44:40;101269.97;;;17.46;25.07
22000;BME280;11164;48.818;2.322;2023-03-03T15:50:29;101282.53;;;17.03;22.65
22000;BME280;11164;48.818;2.322;2023-03-03T15:56:17;101297.53;;;16.69;24.40
22000;BME280;11164;48.818;2.322;2023-03-03T15:58:55;101295.78;;;15.72;25.87
22000;BME280;11164;48.818;2.322;2023-03-03T16:01:37;101277.31;;;15.43;25.58
22000;BME280;11164;48.818;2.322;2023-03-03T16:04:23;101293.38;;;15.96;23.77
22000;BME280;11164;48.818;2.322;2023-03-03T16:06:56;101299.91;;;16.27;22.58
22000;BME280;11164;48.818;2.322;2023-03-03T16:12:06;101292.41;;;15.25;26.53
22000;BME280;11164;48.818;2.322;2023-03-03T16:20:27;101307.91;;;16.79;24.38
22000;BME280;11164;48.818;2.322;2023-03-03T16:23:24;101313.25;;;16.35;23.60
22000;BME280;11164;48.818;2.322;2023-03-03T16:31:17;101324.13;;;12.78;28.10
22000;BME280;11164;48.818;2.322;2023-03-03T16:36:31;101326.44;;;11.65;29.91
22000;BME280;11164;48.818;2.322;2023-03-03T16:41:35;101321.31;;;11.55;29.75
22000;BME280;11164;48.818;2.322;2023-03-03T16:52:39;101318.88;;;10.40;31.17
22000;BME280;11164;48.818;2.322;2023-03-03T16:55:15;101332.69;;;10.13;31.50
22000;BME280;11164;48.818;2.322;2023-03-03T17:00:42;101345.38;;;10.28;31.48
22000;BME280;11164;48.818;2.322;2023-03-03T17:03:37;101328.44;;;9.88;31.70
22000;BME280;11164;48.818;2.322;2023-03-03T17:06:29;101351.28;;;10.00;31.00
22000;BME280;11164;48.818;2.322;2023-03-03T17:09:21;101354.00;;;9.92;31.00
22000;BME280;11164;48.818;2.322;2023-03-03T17:11:51;101362.50;;;9.72;30.54
22000;BME280;11164;48.818;2.322;2023-03-03T17:14:44;101363.13;;;9.35;31.30
22000;BME280;11164;48.818;2.322;2023-03-03T17:17:36;101361.13;;;8.88;32.19
22000;BME280;11164;48.818;2.322;2023-03-03T17:36:41;101412.69;;;8.58;31.75
22000;BME280;11164;48.818;2.322;2023-03-03T17:42:13;101423.84;;;7.86;32.37
22000;BME280;11164;48.818;2.322;2023-03-03T17:44:57;101422.97;;;7.78;34.42
22000;BME280;11164;48.818;2.322;2023-03-03T17:55:50;101434.72;;;8.11;34.55